Time;durP1;ratioP1;P1;durP2;ratioP2;P2;SDS_P1;SDS_P2;PMS_P1;PMS_P2;Temp;Humidity;BMP_temperature;BMP_pressure;BME280_temperature;BME280_humidity;BME280_pressure;Samples;Min_cycle;Max_cycle;Signal;HPM_P1;HPM_P2
2021/04/08 00:00:31;;;;;;;24.00;16.00;;;;;;;;;;4344094;33;20302;-62
2021/04/08 00:02:56;;;;;;;19.43;13.90;;;;;;;;;;4343009;33;20270;-62
2021/04/08 00:05:22;;;;;;;15.50;10.63;;;;;;;;;;4342685;33;20317;-61
2021/04/08 00:07:47;;;;;;;19.13;12.00;;;;;;;;;;4326848;33;20304;-60
2021/04/08 00:10:13;;;;;;;17.80;11.40;;;;;;;;;;4343485;33;20313;-60
2021/04/08 00:12:39;;;;;;;15.27;11.83;;;;;;;;;;4342975;33;20211;-60
2021/04/08 00:15:15;;;;;;;14.77;10.17;;;;;;;;;;4343879;33;20757;-59
2021/04/08 00:17:41;;;;;;;14.93;10.30;;;;;;;;;;4343105;32;20483;-60
2021/04/08 00:20:13;;;;;;;15.67;10.13;;;;;;;;;;4329704;33;20222;-60
2021/04/08 00:22:38;;;;;;;14.87;9.87;;;;;;;;;;4340713;33;20440;-60
2021/04/08 00:25:04;;;;;;;17.50;10.70;;;;;;;;;;4342406;33;20314;-61
2021/04/08 00:27:29;;;;;;;15.97;10.47;;;;;;;;;;4342767;32;20227;-59
2021/04/08 00:29:55;;;;;;;16.10;9.47;;;;;;;;;;4341972;33;20712;-58
2021/04/08 00:32:20;;;;;;;15.90;9.77;;;;;;;;;;4343079;33;20608;-59
2021/04/08 00:34:46;;;;;;;15.53;9.67;;;;;;;;;;4343321;32;20293;-59
2021/04/08 00:37:11;;;;;;;22.00;13.87;;;;;;;;;;4342969;33;20302;-59
2021/04/08 00:39:37;;;;;;;25.30;18.03;;;;;;;;;;4341713;33;20331;-59
2021/04/08 00:42:02;;;;;;;36.30;22.80;;;;;;;;;;4342788;32;20428;-61
2021/04/08 00:44:28;;;;;;;30.07;23.33;;;;;;;;;;4343320;32;20238;-60
2021/04/08 00:46:53;;;;;;;22.97;19.90;;;;;;;;;;4342646;32;20660;-60
2021/04/08 00:49:19;;;;;;;18.77;14.67;;;;;;;;;;4342820;32;20400;-60
2021/04/08 00:51:44;;;;;;;20.17;13.73;;;;;;;;;;4342073;32;20310;-60
2021/04/08 00:54:10;;;;;;;20.33;13.03;;;;;;;;;;4343155;33;20344;-61
2021/04/08 00:56:35;;;;;;;25.07;13.50;;;;;;;;;;4341429;32;20257;-60
2021/04/08 00:59:01;;;;;;;30.40;22.10;;;;;;;;;;4342718;33;20293;-60
2021/04/08 01:01:27;;;;;;;35.73;26.63;;;;;;;;;;4342232;32;20223;-61
2021/04/08 01:03:53;;;;;;;27.40;22.27;;;;;;;;;;4342748;32;20715;-61
2021/04/08 01:06:18;;;;;;;26.03;18.30;;;;;;;;;;4342069;33;20379;-61
2021/04/08 01:08:43;;;;;;;18.43;14.30;;;;;;;;;;4351172;32;20754;-61
2021/04/08 01:11:09;;;;;;;25.63;15.87;;;;;;;;;;4341603;33;20285;-61
2021/04/08 01:13:36;;;;;;;85.17;51.30;;;;;;;;;;4342556;32;20266;-60
2021/04/08 01:16:10;;;;;;;63.60;41.77;;;;;;;;;;4343021;32;20207;-61
2021/04/08 01:18:53;;;;;;;37.97;28.83;;;;;;;;;;4339840;33;20199;-59
2021/04/08 01:21:44;;;;;;;16.43;14.60;;;;;;;;;;4341755;33;20300;-60
2021/04/08 01:24:37;;;;;;;16.77;14.37;;;;;;;;;;4339026;33;20576;-61
2021/04/08 01:27:22;;;;;;;11.80;9.77;;;;;;;;;;4341964;33;20363;-61
2021/04/08 01:30:25;;;;;;;13.33;8.43;;;;;;;;;;4340772;33;20207;-60
2021/04/08 01:32:53;;;;;;;10.30;7.97;;;;;;;;;;4340808;33;20301;-61
2021/04/08 01:35:26;;;;;;;9.13;7.30;;;;;;;;;;4342855;33;20231;-61
2021/04/08 01:38:12;;;;;;;25.70;12.47;;;;;;;;;;4341775;33;20735;-61
2021/04/08 01:40:38;;;;;;;23.47;16.13;;;;;;;;;;4342419;33;20628;-60
2021/04/08 01:43:07;;;;;;;18.13;14.20;;;;;;;;;;4341736;33;20651;-61
2021/04/08 01:45:34;;;;;;;17.50;12.10;;;;;;;;;;4342514;33;20264;-61
2021/04/08 01:48:01;;;;;;;18.97;11.23;;;;;;;;;;4341871;33;20261;-59
2021/04/08 01:50:28;;;;;;;18.83;11.33;;;;;;;;;;4341602;33;20517;-60
2021/04/08 01:52:55;;;;;;;17.63;10.83;;;;;;;;;;4340018;33;20657;-61
2021/04/08 01:55:22;;;;;;;20.30;12.03;;;;;;;;;;4342688;33;20268;-61
2021/04/08 01:57:49;;;;;;;18.93;12.30;;;;;;;;;;4341542;33;20207;-60
2021/04/08 02:00:19;;;;;;;18.40;11.80;;;;;;;;;;4342881;33;20468;-59
2021/04/08 02:02:46;;;;;;;23.27;13.03;;;;;;;;;;4341259;33;20231;-60
2021/04/08 02:05:14;;;;;;;21.13;12.37;;;;;;;;;;4342582;33;20234;-60
2021/04/08 02:07:41;;;;;;;20.40;13.40;;;;;;;;;;4341505;33;20200;-60
2021/04/08 02:10:11;;;;;;;46.40;29.93;;;;;;;;;;4335520;33;20223;-60
2021/04/08 02:12:39;;;;;;;40.20;29.17;;;;;;;;;;4341285;33;20269;-62
2021/04/08 02:15:08;;;;;;;30.57;21.00;;;;;;;;;;4342518;33;20226;-61
2021/04/08 02:17:35;;;;;;;22.90;18.97;;;;;;;;;;4341819;33;20337;-61
2021/04/08 02:20:08;;;;;;;21.13;17.10;;;;;;;;;;4341259;33;20250;-61
2021/04/08 02:22:34;;;;;;;20.20;14.93;;;;;;;;;;4341393;33;20609;-59
2021/04/08 02:25:00;;;;;;;18.93;14.50;;;;;;;;;;4328535;33;20352;-59
2021/04/08 02:27:26;;;;;;;14.93;12.43;;;;;;;;;;4341633;33;20211;-59
2021/04/08 02:29:54;;;;;;;13.17;10.43;;;;;;;;;;4342225;33;20296;-59
2021/04/08 02:32:20;;;;;;;13.63;9.97;;;;;;;;;;4343268;33;20207;-58
2021/04/08 02:34:46;;;;;;;13.80;9.43;;;;;;;;;;4353719;32;20234;-59
2021/04/08 02:37:11;;;;;;;15.80;10.13;;;;;;;;;;4344545;32;20253;-59
2021/04/08 02:39:37;;;;;;;17.50;11.30;;;;;;;;;;4344485;32;20777;-57
2021/04/08 02:42:02;;;;;;;17.33;12.30;;;;;;;;;;4344640;32;20316;-57
2021/04/08 02:44:28;;;;;;;33.97;18.53;;;;;;;;;;4330819;33;20223;-59
2021/04/08 02:46:53;;;;;;;29.23;19.10;;;;;;;;;;4344549;32;20620;-60
2021/04/08 02:49:19;;;;;;;26.50;17.90;;;;;;;;;;4354034;32;20731;-59
2021/04/08 02:51:53;;;;;;;22.93;18.97;;;;;;;;;;4344270;32;20242;-59
2021/04/08 02:54:30;;;;;;;21.17;17.57;;;;;;;;;;4344517;32;20339;-58
2021/04/08 02:57:00;;;;;;;19.67;16.10;;;;;;;;;;4343135;32;20242;-59
2021/04/08 02:59:51;;;;;;;18.50;15.03;;;;;;;;;;4344467;32;20215;-59
2021/04/08 03:02:23;;;;;;;19.83;12.30;;;;;;;;;;4344407;32;20278;-58
2021/04/08 03:04:52;;;;;;;17.10;11.60;;;;;;;;;;4342880;33;20248;-59
2021/04/08 03:07:26;;;;;;;32.63;20.20;;;;;;;;;;4342954;33;20243;-59
2021/04/08 03:09:54;;;;;;;60.67;34.50;;;;;;;;;;4337547;32;20266;-58
2021/04/08 03:12:21;;;;;;;48.23;28.33;;;;;;;;;;4344140;33;20210;-59
2021/04/08 03:14:51;;;;;;;28.43;18.90;;;;;;;;;;4331493;33;20358;-59
2021/04/08 03:17:20;;;;;;;37.27;23.23;;;;;;;;;;4341101;32;20306;-59
2021/04/08 03:19:47;;;;;;;27.60;20.80;;;;;;;;;;4343220;33;20657;-60
2021/04/08 03:22:14;;;;;;;26.50;20.20;;;;;;;;;;4343655;33;20320;-59
2021/04/08 03:24:42;;;;;;;32.87;25.50;;;;;;;;;;4342593;33;20719;-60
2021/04/08 03:27:08;;;;;;;27.73;19.33;;;;;;;;;;4343931;33;20199;-59
2021/04/08 03:29:35;;;;;;;21.07;13.87;;;;;;;;;;4344271;32;20589;-58
2021/04/08 03:32:01;;;;;;;20.53;12.33;;;;;;;;;;4343818;32;20623;-59
2021/04/08 03:34:27;;;;;;;16.80;11.83;;;;;;;;;;4344007;33;20300;-57
2021/04/08 03:36:53;;;;;;;20.63;12.27;;;;;;;;;;4343397;32;20369;-58
2021/04/08 03:39:20;;;;;;;16.07;12.43;;;;;;;;;;4343885;32;20416;-58
2021/04/08 03:41:46;;;;;;;18.50;13.33;;;;;;;;;;4343705;33;20261;-57
2021/04/08 03:44:14;;;;;;;20.77;13.40;;;;;;;;;;4343973;32;20241;-58
2021/04/08 03:46:43;;;;;;;21.77;14.40;;;;;;;;;;4342026;33;20238;-59
2021/04/08 03:49:13;;;;;;;20.37;13.57;;;;;;;;;;4343673;32;20218;-58
2021/04/08 03:51:39;;;;;;;36.53;21.50;;;;;;;;;;4342450;33;20255;-59
2021/04/08 03:54:08;;;;;;;37.37;26.73;;;;;;;;;;4343467;32;20707;-59
2021/04/08 03:56:36;;;;;;;36.57;26.17;;;;;;;;;;4343334;32;20702;-60
2021/04/08 03:59:04;;;;;;;25.87;20.07;;;;;;;;;;4339472;33;20568;-59
2021/04/08 04:01:31;;;;;;;13.10;11.17;;;;;;;;;;4343444;32;20322;-60
2021/04/08 04:03:59;;;;;;;22.63;13.73;;;;;;;;;;4343497;32;20265;-60
2021/04/08 04:06:26;;;;;;;15.33;10.80;;;;;;;;;;4343106;33;20343;-60
2021/04/08 04:08:52;;;;;;;19.97;12.30;;;;;;;;;;4343198;32;20262;-59
2021/04/08 04:11:18;;;;;;;22.30;15.23;;;;;;;;;;4343348;32;20227;-60
2021/04/08 04:13:47;;;;;;;24.77;16.33;;;;;;;;;;4343320;32;20293;-60
2021/04/08 04:16:14;;;;;;;22.13;15.47;;;;;;;;;;4342628;32;20330;-61
2021/04/08 04:18:41;;;;;;;27.70;17.23;;;;;;;;;;4341733;33;20249;-60
2021/04/08 04:21:06;;;;;;;23.60;14.33;;;;;;;;;;4343173;32;20600;-61
2021/04/08 04:23:32;;;;;;;22.73;16.07;;;;;;;;;;4343185;32;20286;-60
2021/04/08 04:25:57;;;;;;;22.97;14.50;;;;;;;;;;4343043;33;20294;-61
2021/04/08 04:28:22;;;;;;;23.70;15.57;;;;;;;;;;4342778;33;20782;-61
2021/04/08 04:30:48;;;;;;;26.50;16.37;;;;;;;;;;4343411;32;20774;-58
2021/04/08 04:33:15;;;;;;;27.10;16.37;;;;;;;;;;4341572;33;20305;-58
2021/04/08 04:35:40;;;;;;;26.50;15.87;;;;;;;;;;4343171;32;20301;-58
2021/04/08 04:38:05;;;;;;;24.57;16.37;;;;;;;;;;4341980;33;20393;-59
2021/04/08 04:40:31;;;;;;;23.10;16.97;;;;;;;;;;4343629;33;20301;-59
2021/04/08 04:42:56;;;;;;;23.53;15.03;;;;;;;;;;4342648;32;20324;-59
2021/04/08 04:45:22;;;;;;;23.13;15.73;;;;;;;;;;4342257;33;20269;-59
2021/04/08 04:47:48;;;;;;;21.57;14.87;;;;;;;;;;4347038;32;20607;-58
2021/04/08 04:50:15;;;;;;;26.60;16.67;;;;;;;;;;4346223;32;20388;-59
2021/04/08 04:52:40;;;;;;;26.17;18.90;;;;;;;;;;4342394;32;20230;-59
2021/04/08 04:55:07;;;;;;;24.53;16.67;;;;;;;;;;4339191;33;20227;-59
2021/04/08 04:57:33;;;;;;;35.87;22.53;;;;;;;;;;4339645;33;20679;-58
2021/04/08 04:59:58;;;;;;;40.40;24.93;;;;;;;;;;4342817;33;20304;-60
2021/04/08 05:02:24;;;;;;;38.03;26.53;;;;;;;;;;4342599;33;20598;-60
2021/04/08 05:04:49;;;;;;;38.30;24.17;;;;;;;;;;4342895;32;20253;-60
2021/04/08 05:07:15;;;;;;;40.80;26.43;;;;;;;;;;4342480;33;20300;-59
2021/04/08 05:09:41;;;;;;;41.67;25.33;;;;;;;;;;4341640;33;20283;-57
2021/04/08 05:12:07;;;;;;;42.80;26.63;;;;;;;;;;4342265;32;20284;-57
2021/04/08 05:14:33;;;;;;;38.20;24.53;;;;;;;;;;4341613;33;20231;-57
2021/04/08 05:16:59;;;;;;;36.30;22.17;;;;;;;;;;4342745;32;20616;-58
2021/04/08 05:19:24;;;;;;;31.57;18.57;;;;;;;;;;4342239;32;20264;-58
2021/04/08 05:21:50;;;;;;;31.50;17.30;;;;;;;;;;4341784;33;20210;-58
2021/04/08 05:24:16;;;;;;;247.27;129.80;;;;;;;;;;4340932;33;20282;-57
2021/04/08 05:26:41;;;;;;;34.90;23.03;;;;;;;;;;4342330;33;20290;-60
2021/04/08 05:29:07;;;;;;;32.33;20.33;;;;;;;;;;4341959;32;20294;-59
2021/04/08 05:31:32;;;;;;;52.13;31.97;;;;;;;;;;4342311;33;20293;-60
2021/04/08 05:33:58;;;;;;;33.00;23.80;;;;;;;;;;4341343;32;20277;-61
2021/04/08 05:36:23;;;;;;;27.37;17.83;;;;;;;;;;4340277;33;20978;-62
2021/04/08 05:38:49;;;;;;;15.53;10.60;;;;;;;;;;4340328;33;20313;-58
2021/04/08 05:41:14;;;;;;;19.87;11.17;;;;;;;;;;4339752;33;20280;-58
2021/04/08 05:43:39;;;;;;;22.43;14.70;;;;;;;;;;4340450;33;20343;-58
2021/04/08 05:46:09;;;;;;;16.97;11.17;;;;;;;;;;4338949;33;20358;-60
2021/04/08 05:48:34;;;;;;;17.17;11.10;;;;;;;;;;4340891;33;20265;-58
2021/04/08 05:51:00;;;;;;;17.90;8.97;;;;;;;;;;4341876;33;20286;-59
2021/04/08 05:53:25;;;;;;;27.43;14.27;;;;;;;;;;4342174;33;20336;-59
2021/04/08 05:55:51;;;;;;;25.63;15.63;;;;;;;;;;4341644;33;20254;-59
2021/04/08 05:58:16;;;;;;;21.60;13.57;;;;;;;;;;4342260;33;20356;-61
2021/04/08 06:00:42;;;;;;;21.27;10.50;;;;;;;;;;4341979;33;20321;-61
2021/04/08 06:03:07;;;;;;;17.20;10.40;;;;;;;;;;4342587;33;20273;-59
2021/04/08 06:05:35;;;;;;;22.03;13.10;;;;;;;;;;4341115;33;20784;-58
2021/04/08 06:08:00;;;;;;;22.60;13.23;;;;;;;;;;4343989;33;20238;-58
2021/04/08 06:10:26;;;;;;;23.70;13.47;;;;;;;;;;4345408;32;20235;-63
2021/04/08 06:12:51;;;;;;;27.13;14.80;;;;;;;;;;4344873;33;20341;-61
2021/04/08 06:15:18;;;;;;;13.93;9.20;;;;;;;;;;4345553;33;20237;-58
2021/04/08 06:17:43;;;;;;;17.77;9.67;;;;;;;;;;4345096;32;20294;-57
2021/04/08 06:20:09;;;;;;;26.03;13.83;;;;;;;;;;4344534;33;20768;-58
2021/04/08 06:22:35;;;;;;;66.47;37.00;;;;;;;;;;4344269;33;20223;-58
2021/04/08 06:25:00;;;;;;;36.43;21.23;;;;;;;;;;4345432;32;20219;-57
2021/04/08 06:27:28;;;;;;;42.43;25.40;;;;;;;;;;4344722;32;20210;-58
2021/04/08 06:29:53;;;;;;;28.43;16.53;;;;;;;;;;4344684;33;20304;-58
2021/04/08 06:32:19;;;;;;;30.77;20.90;;;;;;;;;;4343199;33;20298;-58
2021/04/08 06:34:44;;;;;;;35.87;24.70;;;;;;;;;;4343562;33;20722;-58
2021/04/08 06:37:10;;;;;;;34.60;25.50;;;;;;;;;;4345287;32;20233;-58
2021/04/08 06:39:35;;;;;;;21.80;12.83;;;;;;;;;;4339562;33;20688;-57
2021/04/08 06:42:01;;;;;;;21.20;9.80;;;;;;;;;;4340816;33;20300;-58
2021/04/08 06:44:28;;;;;;;17.60;9.17;;;;;;;;;;4340199;32;20230;-58
2021/04/08 06:47:02;;;;;;;19.77;13.47;;;;;;;;;;4344603;32;20248;-58
2021/04/08 06:49:34;;;;;;;15.83;8.83;;;;;;;;;;4345287;32;20242;-58
2021/04/08 06:52:01;;;;;;;17.40;11.60;;;;;;;;;;4335833;33;20293;-59
2021/04/08 06:54:28;;;;;;;14.77;10.63;;;;;;;;;;4342183;32;20219;-58
2021/04/08 06:56:53;;;;;;;18.97;8.27;;;;;;;;;;4350458;32;20294;-59
2021/04/08 06:59:19;;;;;;;15.63;9.27;;;;;;;;;;4339094;33;20352;-58
2021/04/08 07:01:46;;;;;;;16.00;9.93;;;;;;;;;;4342874;32;20269;-58
2021/04/08 07:04:13;;;;;;;13.50;8.30;;;;;;;;;;4353195;32;20692;-59
2021/04/08 07:06:39;;;;;;;13.30;9.30;;;;;;;;;;4342924;33;20329;-58
2021/04/08 07:09:08;;;;;;;14.93;8.70;;;;;;;;;;4343513;32;20675;-59
2021/04/08 07:11:35;;;;;;;14.13;8.80;;;;;;;;;;4342801;32;20819;-59
2021/04/08 07:14:02;;;;;;;9.23;7.03;;;;;;;;;;4346749;32;20322;-59
2021/04/08 07:16:29;;;;;;;14.93;10.40;;;;;;;;;;4355214;32;20710;-58
2021/04/08 07:18:55;;;;;;;13.77;8.27;;;;;;;;;;4342662;33;20241;-58
2021/04/08 07:21:22;;;;;;;12.53;8.50;;;;;;;;;;4349289;32;20232;-59
2021/04/08 07:24:07;;;;;;;12.57;7.50;;;;;;;;;;4343452;32;20211;-58
2021/04/08 07:26:52;;;;;;;13.70;9.23;;;;;;;;;;4338938;33;20308;-59
2021/04/08 07:29:19;;;;;;;12.60;8.17;;;;;;;;;;4341628;33;20317;-58
2021/04/08 07:31:45;;;;;;;13.93;8.23;;;;;;;;;;4345696;32;20226;-58
2021/04/08 07:34:10;;;;;;;9.13;6.73;;;;;;;;;;4343255;32;20753;-58
2021/04/08 07:36:39;;;;;;;13.40;7.77;;;;;;;;;;4342684;32;20307;-58
2021/04/08 07:39:16;;;;;;;12.40;7.97;;;;;;;;;;4347526;32;20525;-59
2021/04/08 07:41:42;;;;;;;11.07;7.00;;;;;;;;;;4341926;32;20676;-57
2021/04/08 07:44:08;;;;;;;10.83;7.10;;;;;;;;;;4341646;32;20268;-58
2021/04/08 07:46:44;;;;;;;9.03;6.50;;;;;;;;;;4341548;33;20392;-58
2021/04/08 07:49:28;;;;;;;7.77;5.90;;;;;;;;;;4345657;32;20340;-58
2021/04/08 07:51:55;;;;;;;13.53;7.50;;;;;;;;;;4343985;32;20230;-57
2021/04/08 07:54:21;;;;;;;8.60;6.57;;;;;;;;;;4340785;32;20281;-57
2021/04/08 07:56:47;;;;;;;11.70;8.57;;;;;;;;;;4341465;32;20433;-58
2021/04/08 07:59:18;;;;;;;13.37;8.67;;;;;;;;;;4336996;33;20598;-58
2021/04/08 08:01:45;;;;;;;19.27;9.23;;;;;;;;;;4340086;33;20695;-58
2021/04/08 08:04:22;;;;;;;17.57;9.60;;;;;;;;;;4341129;33;20218;-58
2021/04/08 08:06:48;;;;;;;20.33;13.70;;;;;;;;;;4341852;32;20214;-57
2021/04/08 08:09:17;;;;;;;22.27;14.07;;;;;;;;;;4342765;32;20765;-59
2021/04/08 08:11:43;;;;;;;19.70;10.50;;;;;;;;;;4343092;32;20305;-58
2021/04/08 08:14:09;;;;;;;16.37;7.37;;;;;;;;;;4342677;33;20376;-58
2021/04/08 08:16:35;;;;;;;18.23;8.40;;;;;;;;;;4341848;33;20238;-57
2021/04/08 08:19:02;;;;;;;11.37;8.03;;;;;;;;;;4342441;32;20199;-57
2021/04/08 08:21:27;;;;;;;15.20;8.10;;;;;;;;;;4342399;32;20219;-58
2021/04/08 08:23:55;;;;;;;6.40;5.17;;;;;;;;;;4342278;32;20304;-58
2021/04/08 08:26:40;;;;;;;10.67;5.87;;;;;;;;;;4342673;33;20266;-58
2021/04/08 08:29:12;;;;;;;17.53;6.83;;;;;;;;;;4342760;32;20648;-58
2021/04/08 08:31:41;;;;;;;9.43;6.77;;;;;;;;;;4343322;32;20235;-60
2021/04/08 08:34:09;;;;;;;7.27;5.73;;;;;;;;;;4341843;33;20769;-58
2021/04/08 08:36:37;;;;;;;21.43;12.33;;;;;;;;;;4353694;32;20251;-59
2021/04/08 08:39:09;;;;;;;12.50;8.17;;;;;;;;;;4342647;32;20631;-58
2021/04/08 08:41:35;;;;;;;15.30;9.77;;;;;;;;;;4354139;32;20246;-58
2021/04/08 08:44:06;;;;;;;26.63;10.53;;;;;;;;;;4351462;32;20731;-57
2021/04/08 08:46:36;;;;;;;8.73;6.50;;;;;;;;;;4353446;32;20231;-59
2021/04/08 08:49:02;;;;;;;9.67;6.77;;;;;;;;;;4345435;32;20395;-58
2021/04/08 08:51:28;;;;;;;13.50;7.97;;;;;;;;;;4341313;33;20540;-58
2021/04/08 08:53:54;;;;;;;43.00;21.30;;;;;;;;;;4342872;33;20395;-58
2021/04/08 08:56:23;;;;;;;19.83;9.13;;;;;;;;;;4342734;33;20214;-58
2021/04/08 08:58:52;;;;;;;17.97;7.10;;;;;;;;;;4342158;32;20262;-57
2021/04/08 09:01:18;;;;;;;19.07;12.10;;;;;;;;;;4342617;32;20296;-58
2021/04/08 09:03:43;;;;;;;6.13;4.93;;;;;;;;;;4341516;33;20338;-59
2021/04/08 09:06:09;;;;;;;12.30;7.80;;;;;;;;;;4342552;33;20358;-59
2021/04/08 09:08:37;;;;;;;6.10;4.67;;;;;;;;;;4342806;33;20277;-58
2021/04/08 09:11:03;;;;;;;8.97;5.50;;;;;;;;;;4343012;33;20293;-58
2021/04/08 09:13:28;;;;;;;7.67;5.13;;;;;;;;;;4342818;33;20289;-59
2021/04/08 09:15:59;;;;;;;5.07;4.33;;;;;;;;;;4342826;33;20277;-57
2021/04/08 09:18:25;;;;;;;9.93;6.30;;;;;;;;;;4348865;32;20210;-58
2021/04/08 09:20:53;;;;;;;10.67;4.93;;;;;;;;;;4343024;33;20273;-58
2021/04/08 09:23:21;;;;;;;9.70;6.30;;;;;;;;;;4342605;33;20356;-58
2021/04/08 09:25:53;;;;;;;12.37;7.13;;;;;;;;;;4342593;33;20234;-59
2021/04/08 09:28:19;;;;;;;10.10;7.27;;;;;;;;;;4342497;33;20249;-58
2021/04/08 09:31:19;;;;;;;4.70;4.20;;;;;;;;;;4343051;33;20289;-59
2021/04/08 09:33:51;;;;;;;29.73;14.17;;;;;;;;;;4341727;33;20238;-58
2021/04/08 09:36:19;;;;;;;7.73;5.57;;;;;;;;;;4342388;33;20223;-58
2021/04/08 09:38:45;;;;;;;10.20;6.50;;;;;;;;;;4342455;33;20278;-59
2021/04/08 09:41:10;;;;;;;5.47;4.70;;;;;;;;;;4341258;33;20250;-56
2021/04/08 09:43:37;;;;;;;7.87;5.83;;;;;;;;;;4341398;33;20305;-59
2021/04/08 09:46:08;;;;;;;25.93;13.50;;;;;;;;;;4342503;33;20265;-59
2021/04/08 09:48:49;;;;;;;15.00;10.20;;;;;;;;;;4342069;33;20274;-59
2021/04/08 09:51:25;;;;;;;7.73;4.40;;;;;;;;;;4342349;33;20230;-60
2021/04/08 09:53:54;;;;;;;5.67;4.07;;;;;;;;;;4342249;33;20226;-58
2021/04/08 09:56:56;;;;;;;9.30;5.03;;;;;;;;;;4342437;33;20226;-57
2021/04/08 09:59:26;;;;;;;6.80;5.20;;;;;;;;;;4339978;33;20294;-57
2021/04/08 10:01:52;;;;;;;6.37;4.30;;;;;;;;;;4342230;33;20285;-58
2021/04/08 10:04:25;;;;;;;7.80;5.30;;;;;;;;;;4338533;33;20294;-57
2021/04/08 10:07:04;;;;;;;6.80;4.80;;;;;;;;;;4342050;33;20202;-59
2021/04/08 10:09:30;;;;;;;7.60;5.00;;;;;;;;;;4341443;33;20288;-58
2021/04/08 10:11:55;;;;;;;11.40;6.87;;;;;;;;;;4353931;32;20290;-57
2021/04/08 10:14:22;;;;;;;10.03;6.67;;;;;;;;;;4340998;33;20595;-57
2021/04/08 10:17:10;;;;;;;21.30;12.80;;;;;;;;;;4342209;33;20260;-57
2021/04/08 10:19:43;;;;;;;7.07;5.67;;;;;;;;;;4340666;33;20600;-57
2021/04/08 10:22:10;;;;;;;6.60;4.40;;;;;;;;;;4341977;33;20581;-58
2021/04/08 10:24:43;;;;;;;13.13;6.93;;;;;;;;;;4340092;33;20337;-56
2021/04/08 10:27:26;;;;;;;11.67;6.53;;;;;;;;;;4342217;33;20242;-58
2021/04/08 10:29:52;;;;;;;7.53;4.63;;;;;;;;;;4342241;33;20211;-57
2021/04/08 10:32:35;;;;;;;11.90;9.13;;;;;;;;;;4342192;33;20233;-58
2021/04/08 10:35:00;;;;;;;20.27;11.93;;;;;;;;;;4342531;33;20207;-57
2021/04/08 10:37:28;;;;;;;21.63;13.77;;;;;;;;;;4341667;33;20234;-57
2021/04/08 10:39:53;;;;;;;23.77;14.67;;;;;;;;;;4342085;33;20330;-57
2021/04/08 10:42:20;;;;;;;13.50;6.17;;;;;;;;;;4341489;33;20692;-57
2021/04/08 10:44:49;;;;;;;11.93;7.80;;;;;;;;;;4339231;33;20277;-57
2021/04/08 10:47:26;;;;;;;25.10;12.07;;;;;;;;;;4342559;32;20761;-57
2021/04/08 10:49:59;;;;;;;12.67;6.67;;;;;;;;;;4336833;33;20524;-57
2021/04/08 10:52:32;;;;;;;8.03;5.10;;;;;;;;;;4341016;33;20669;-57
2021/04/08 10:55:04;;;;;;;4.93;3.63;;;;;;;;;;4344230;33;20250;-57
2021/04/08 10:57:31;;;;;;;4.20;3.80;;;;;;;;;;4341208;33;20234;-56
2021/04/08 10:59:57;;;;;;;6.37;4.97;;;;;;;;;;4344125;33;20222;-56
2021/04/08 11:02:26;;;;;;;9.33;6.07;;;;;;;;;;4344231;32;20215;-56
2021/04/08 11:04:53;;;;;;;8.17;4.93;;;;;;;;;;4344551;32;20684;-56
2021/04/08 11:07:20;;;;;;;7.07;4.73;;;;;;;;;;4343642;33;20309;-55
2021/04/08 11:09:46;;;;;;;6.10;3.53;;;;;;;;;;4343849;33;20368;-54
2021/04/08 11:12:16;;;;;;;7.73;3.97;;;;;;;;;;4344591;33;20297;-55
2021/04/08 11:14:50;;;;;;;5.47;3.90;;;;;;;;;;4344222;33;20261;-56
2021/04/08 11:17:17;;;;;;;8.47;5.80;;;;;;;;;;4344162;33;20233;-56
2021/04/08 11:19:43;;;;;;;9.87;5.70;;;;;;;;;;4344026;33;20242;-57
2021/04/08 11:22:20;;;;;;;7.60;4.90;;;;;;;;;;4342896;33;20684;-57
2021/04/08 11:24:49;;;;;;;7.77;5.20;;;;;;;;;;4344520;32;20630;-55
2021/04/08 11:27:32;;;;;;;8.67;4.57;;;;;;;;;;4329618;33;20212;-56
2021/04/08 11:29:58;;;;;;;7.10;4.57;;;;;;;;;;4329760;33;20241;-56
2021/04/08 11:32:24;;;;;;;8.47;4.43;;;;;;;;;;4329328;33;20530;-56
2021/04/08 11:34:55;;;;;;;10.30;6.33;;;;;;;;;;4344197;33;20261;-55
2021/04/08 11:37:34;;;;;;;8.83;6.93;;;;;;;;;;4343126;33;20249;-56
2021/04/08 11:40:01;;;;;;;5.67;4.17;;;;;;;;;;4328232;33;20333;-57
2021/04/08 11:42:35;;;;;;;5.87;3.33;;;;;;;;;;4328924;33;20224;-56
2021/04/08 11:45:21;;;;;;;7.73;4.43;;;;;;;;;;4329539;33;20293;-55
2021/04/08 11:48:06;;;;;;;11.27;5.63;;;;;;;;;;4331542;33;20291;-56
2021/04/08 11:50:37;;;;;;;5.67;4.03;;;;;;;;;;4343806;33;20617;-55
2021/04/08 11:53:07;;;;;;;8.90;4.90;;;;;;;;;;4246448;32;20253;-55
2021/04/08 11:59:23;;;;;;;7.53;5.23;;;;;;;;;;4450356;32;20268;-55
2021/04/08 12:01:51;;;;;;;7.10;4.50;;;;;;;;;;4422426;32;20225;-55
2021/04/08 12:04:25;;;;;;;7.77;5.10;;;;;;;;;;4415695;32;20266;-55
2021/04/08 12:06:55;;;;;;;7.27;3.70;;;;;;;;;;4415539;32;20643;-55
2021/04/08 12:09:34;;;;;;;7.40;4.27;;;;;;;;;;4416005;32;20313;-56
2021/04/08 12:12:00;;;;;;;8.13;5.13;;;;;;;;;;4415457;32;20514;-56
2021/04/08 12:14:25;;;;;;;6.07;4.07;;;;;;;;;;4415389;32;20264;-57
2021/04/08 12:17:05;;;;;;;11.53;6.23;;;;;;;;;;4415282;32;20213;-56
2021/04/08 12:19:32;;;;;;;10.33;6.57;;;;;;;;;;4414766;32;20280;-56
2021/04/08 12:22:11;;;;;;;20.87;9.33;;;;;;;;;;4414843;32;20288;-55
2021/04/08 12:24:38;;;;;;;8.07;6.70;;;;;;;;;;4415415;32;20205;-55
2021/04/08 12:27:24;;;;;;;17.43;8.90;;;;;;;;;;4401374;32;20636;-57
2021/04/08 12:29:50;;;;;;;11.17;7.10;;;;;;;;;;4415408;32;20292;-55
2021/04/08 12:32:26;;;;;;;18.40;9.67;;;;;;;;;;4414934;32;20266;-55
2021/04/08 12:34:52;;;;;;;7.87;4.47;;;;;;;;;;4401816;32;20283;-56
2021/04/08 12:37:17;;;;;;;14.27;8.87;;;;;;;;;;4425353;32;20251;-56
2021/04/08 12:39:43;;;;;;;8.30;5.70;;;;;;;;;;4408359;32;20334;-56
2021/04/08 12:42:08;;;;;;;14.90;9.93;;;;;;;;;;4426759;32;20216;-57
2021/04/08 12:44:34;;;;;;;18.63;11.33;;;;;;;;;;4424999;32;20602;-57
2021/04/08 12:46:59;;;;;;;8.93;6.10;;;;;;;;;;4406145;32;20368;-55
2021/04/08 12:49:25;;;;;;;8.70;4.77;;;;;;;;;;4421540;32;20401;-56
2021/04/08 12:51:50;;;;;;;10.80;7.27;;;;;;;;;;4410564;32;20728;-57
2021/04/08 12:54:16;;;;;;;9.43;6.30;;;;;;;;;;4428390;32;20691;-56
2021/04/08 12:56:41;;;;;;;12.63;6.33;;;;;;;;;;4424423;32;20351;-57
2021/04/08 12:59:06;;;;;;;8.23;6.37;;;;;;;;;;4412697;32;20431;-57
2021/04/08 13:01:32;;;;;;;9.37;5.77;;;;;;;;;;4429346;32;20578;-56
2021/04/08 13:03:57;;;;;;;7.73;5.87;;;;;;;;;;4429530;32;20339;-55
2021/04/08 13:06:23;;;;;;;10.47;7.70;;;;;;;;;;4429717;32;20243;-56
2021/04/08 13:08:48;;;;;;;10.17;6.90;;;;;;;;;;4426433;32;20284;-56
2021/04/08 13:11:14;;;;;;;11.27;6.53;;;;;;;;;;4417663;32;20216;-57
2021/04/08 13:13:39;;;;;;;9.47;6.77;;;;;;;;;;4416150;32;20249;-56
2021/04/08 13:16:05;;;;;;;11.77;6.17;;;;;;;;;;4418939;32;20266;-56
2021/04/08 13:18:30;;;;;;;6.20;4.47;;;;;;;;;;4404658;32;20343;-56
2021/04/08 13:20:56;;;;;;;7.03;4.73;;;;;;;;;;4418427;32;20316;-56
2021/04/08 13:23:21;;;;;;;9.63;5.07;;;;;;;;;;4404086;32;20378;-56
2021/04/08 13:25:47;;;;;;;11.03;5.23;;;;;;;;;;4418482;32;20420;-56
2021/04/08 13:28:12;;;;;;;13.30;7.33;;;;;;;;;;4404005;32;20255;-56
2021/04/08 13:30:38;;;;;;;16.17;9.23;;;;;;;;;;4402333;32;20300;-56
2021/04/08 13:33:04;;;;;;;11.40;6.57;;;;;;;;;;4417537;32;20352;-57
2021/04/08 13:35:30;;;;;;;28.57;16.83;;;;;;;;;;4419155;32;20269;-57
2021/04/08 13:37:56;;;;;;;38.03;22.30;;;;;;;;;;4415390;32;20283;-56
2021/04/08 13:40:23;;;;;;;18.40;9.17;;;;;;;;;;4418902;32;20416;-57
2021/04/08 13:42:49;;;;;;;12.23;7.73;;;;;;;;;;4416861;32;20221;-55
2021/04/08 13:45:14;;;;;;;11.67;6.13;;;;;;;;;;4419497;32;20294;-57
2021/04/08 13:47:40;;;;;;;11.33;6.73;;;;;;;;;;4417158;32;20221;-55
2021/04/08 13:50:10;;;;;;;10.60;5.97;;;;;;;;;;4419189;32;20562;-55
2021/04/08 13:52:37;;;;;;;9.27;5.43;;;;;;;;;;4417946;32;20210;-56
2021/04/08 13:55:05;;;;;;;7.40;5.27;;;;;;;;;;4418983;32;20272;-56
2021/04/08 13:57:30;;;;;;;9.00;6.40;;;;;;;;;;4417427;32;20241;-56
2021/04/08 13:59:55;;;;;;;8.07;5.60;;;;;;;;;;4404253;32;20591;-56
2021/04/08 14:02:23;;;;;;;7.97;5.80;;;;;;;;;;4417873;32;20323;-57
2021/04/08 14:04:48;;;;;;;18.80;11.07;;;;;;;;;;4416870;32;20227;-56
2021/04/08 14:07:14;;;;;;;11.90;9.00;;;;;;;;;;4418627;32;20217;-56
2021/04/08 14:09:39;;;;;;;12.03;7.57;;;;;;;;;;4394282;32;20291;-56
2021/04/08 14:12:05;;;;;;;17.83;8.00;;;;;;;;;;4405117;32;20232;-57
2021/04/08 14:14:31;;;;;;;9.37;5.90;;;;;;;;;;4416814;32;20265;-57
2021/04/08 14:16:56;;;;;;;25.27;15.80;;;;;;;;;;4407882;32;20245;-56
2021/04/08 14:19:23;;;;;;;13.10;7.73;;;;;;;;;;4411823;32;20386;-56
2021/04/08 14:21:49;;;;;;;7.07;5.80;;;;;;;;;;4400587;32;20287;-57
2021/04/08 14:24:15;;;;;;;7.20;4.17;;;;;;;;;;4411605;32;20244;-55
2021/04/08 14:26:42;;;;;;;5.53;3.37;;;;;;;;;;4412413;32;20276;-60
2021/04/08 14:29:07;;;;;;;10.70;5.57;;;;;;;;;;4412317;32;20231;-61
2021/04/08 14:31:33;;;;;;;8.90;4.90;;;;;;;;;;4407723;32;20324;-61
2021/04/08 14:33:58;;;;;;;7.67;5.70;;;;;;;;;;4404559;32;20280;-61
2021/04/08 14:36:23;;;;;;;8.47;4.50;;;;;;;;;;4409057;32;20268;-61